createdAt,value
2023-04-27T00:02:08.442Z,98524.78
2023-04-27T00:06:10.545Z,98523.91
2023-04-27T00:10:12.781Z,98526.22
2023-04-27T00:14:14.897Z,98527.75
2023-04-27T00:18:17.200Z,98520.22
2023-04-27T00:22:19.440Z,98519.41
2023-04-27T00:26:22.653Z,98516.06
2023-04-27T00:30:27.270Z,98513.72
2023-04-27T00:34:29.412Z,98511.13
2023-04-27T00:38:31.764Z,98512.38
2023-04-27T00:42:34.827Z,98502.63
2023-04-27T00:46:37.123Z,98504.72
2023-04-27T00:50:39.870Z,98511.63
2023-04-27T00:54:42.628Z,98514.66
2023-04-27T00:58:44.821Z,98515.22
2023-04-27T01:02:49.312Z,98509.78
2023-04-27T01:06:53.696Z,98512.28
2023-04-27T01:10:56.820Z,98502.78
2023-04-27T01:14:58.988Z,98509.06
2023-04-27T01:19:01.437Z,98511.47
2023-04-27T01:23:03.734Z,98511.94
2023-04-27T01:27:05.881Z,98505.69
2023-04-27T01:31:08.070Z,98514.22
2023-04-27T01:35:10.593Z,98517.31
2023-04-27T01:39:12.905Z,98523.50
2023-04-27T01:43:17.070Z,98516.59
2023-04-27T01:47:19.190Z,98524.72
2023-04-27T01:51:21.683Z,98524.28
2023-04-27T01:55:24.471Z,98536.94
2023-04-27T01:59:26.706Z,98537.34
2023-04-27T02:03:29.066Z,98542.88
2023-04-27T02:07:34.674Z,98527.16
2023-04-27T02:11:38.594Z,98528.44
2023-04-27T02:15:41.046Z,98533.97
2023-04-27T02:19:43.626Z,98542.34
2023-04-27T02:23:46.580Z,98536.25
2023-04-27T02:27:48.760Z,98541.53
2023-04-27T02:31:51.731Z,98549.41
2023-04-27T02:35:53.894Z,98553.88
2023-04-27T02:39:57.570Z,98558.19
2023-04-27T02:43:59.954Z,98550.72
2023-04-27T02:48:02.254Z,98551.28
2023-04-27T02:52:04.575Z,98549.00
2023-04-27T02:56:06.920Z,98546.94
2023-04-27T03:00:10.613Z,98546.94
2023-04-27T03:04:14.857Z,98540.00
2023-04-27T03:08:17.130Z,98543.81
2023-04-27T03:12:19.294Z,98550.47
2023-04-27T03:16:21.480Z,98556.03
2023-04-27T03:20:24.115Z,98562.91
2023-04-27T03:24:29.677Z,98578.44
2023-04-27T03:28:31.903Z,98580.94
2023-04-27T03:32:34.494Z,98574.06
2023-04-27T03:36:36.685Z,98573.03
2023-04-27T03:40:38.861Z,98582.66
2023-04-27T03:44:41.714Z,98583.81
2023-04-27T03:48:44.103Z,98586.09
2023-04-27T03:52:46.657Z,98569.56
2023-04-27T03:56:48.787Z,98578.50
2023-04-27T04:00:51.461Z,98573.09
2023-04-27T04:04:53.797Z,98581.63
2023-04-27T04:08:56.145Z,98585.97
2023-04-27T04:12:58.776Z,98589.41
2023-04-27T04:17:01.814Z,98591.47
2023-04-27T04:21:04.199Z,98603.69
2023-04-27T04:25:06.858Z,98596.50
2023-04-27T04:29:10.961Z,98611.28
2023-04-27T04:33:14.017Z,98618.97
2023-04-27T04:37:16.781Z,98620.44
2023-04-27T04:41:19.590Z,98614.84
2023-04-27T04:45:21.844Z,98618.91
2023-04-27T04:49:24.567Z,98628.50
2023-04-27T04:53:27.005Z,98627.72
2023-04-27T04:57:31.175Z,98643.16
2023-04-27T05:01:33.880Z,98638.31
2023-04-27T05:05:36.555Z,98645.41
2023-04-27T05:09:39.357Z,98645.63
2023-04-27T05:13:41.498Z,98649.41
2023-04-27T05:17:43.612Z,98641.34
2023-04-27T05:21:46.110Z,98651.09
2023-04-27T05:25:48.191Z,98658.31
2023-04-27T05:29:50.377Z,98655.47
2023-04-27T05:33:52.704Z,98663.75
2023-04-27T05:37:55.254Z,98667.63
2023-04-27T05:41:57.744Z,98672.06
2023-04-27T05:46:00.201Z,98677.47
2023-04-27T05:50:02.383Z,98680.06
2023-04-27T05:54:04.582Z,98676.53
2023-04-27T05:58:09.015Z,98681.75
2023-04-27T06:02:11.602Z,98676.03
2023-04-27T06:06:13.791Z,98680.84
2023-04-27T06:10:16.662Z,98681.66
2023-04-27T06:14:18.853Z,98683.75
2023-04-27T06:18:21.123Z,98675.59
2023-04-27T06:22:23.344Z,98679.50
2023-04-27T06:26:25.517Z,98671.28
2023-04-27T06:30:27.841Z,98670.38
2023-04-27T06:34:29.913Z,98682.00
2023-04-27T06:38:32.172Z,98689.34
2023-04-27T06:42:34.990Z,98688.72
2023-04-27T06:46:37.366Z,98692.09
2023-04-27T06:50:39.859Z,98688.75
2023-04-27T06:54:42.133Z,98690.72
2023-04-27T06:58:44.342Z,98698.22
2023-04-27T07:02:46.789Z,98689.25
2023-04-27T07:06:49.025Z,98690.09
2023-04-27T07:10:51.168Z,98683.47
2023-04-27T07:14:53.250Z,98686.16
2023-04-27T07:18:55.282Z,98669.38
2023-04-27T07:22:57.642Z,98667.81
2023-04-27T07:27:02.781Z,98676.56
2023-04-27T07:31:06.337Z,98676.81
2023-04-27T07:35:09.802Z,98671.16
2023-04-27T07:39:12.691Z,98672.41
2023-04-27T07:43:15.886Z,98671.25
2023-04-27T07:47:19.068Z,98670.13
2023-04-27T07:51:21.668Z,98676.75
2023-04-27T07:55:24.681Z,98675.56
2023-04-27T07:59:29.614Z,98678.91
2023-04-27T08:03:32.132Z,98679.59
2023-04-27T08:07:39.423Z,98682.56
2023-04-27T08:11:44.907Z,98692.91
2023-04-27T08:15:47.136Z,98691.34
2023-04-27T08:19:49.290Z,98691.38
2023-04-27T08:23:51.680Z,98689.63
2023-04-27T08:27:53.869Z,98687.03
2023-04-27T08:32:00.902Z,98686.50
2023-04-27T08:36:03.158Z,98691.00
2023-04-27T08:40:07.777Z,98689.31
2023-04-27T08:44:10.288Z,98693.19
2023-04-27T08:48:12.515Z,98686.34
2023-04-27T08:52:16.567Z,98682.59
2023-04-27T08:56:19.791Z,98681.28
2023-04-27T09:00:22.118Z,98679.22
2023-04-27T09:04:24.643Z,98685.06
2023-04-27T09:08:27.611Z,98682.13
2023-04-27T09:12:29.812Z,98677.34
2023-04-27T09:16:32.166Z,98675.97
2023-04-27T09:20:43.189Z,98672.69
2023-04-27T09:24:53.050Z,98677.47
2023-04-27T09:29:12.096Z,98667.09
2023-04-27T09:33:14.731Z,98666.06
2023-04-27T09:37:17.066Z,98664.03
2023-04-27T09:41:20.173Z,98660.69
2023-04-27T09:45:23.988Z,98665.28
2023-04-27T09:49:28.131Z,98663.34
2023-04-27T09:53:35.192Z,98667.41
2023-04-27T09:57:46.839Z,98659.50
2023-04-27T10:01:52.145Z,98656.63
2023-04-27T10:06:29.033Z,98659.53
2023-04-27T10:10:43.636Z,98659.56
2023-04-27T10:15:16.042Z,98657.97
2023-04-27T10:19:18.909Z,98654.34
2023-04-27T10:23:25.566Z,98651.34
2023-04-27T10:27:28.385Z,98644.81
2023-04-27T10:31:31.020Z,98643.06
2023-04-27T10:35:34.850Z,98634.63
2023-04-27T10:39:47.733Z,98626.34
2023-04-27T10:43:51.466Z,98631.72
2023-04-27T10:47:59.184Z,98625.59
2023-04-27T10:52:04.974Z,98632.72
2023-04-27T10:56:08.200Z,98625.56
2023-04-27T11:00:16.225Z,98622.22
2023-04-27T11:04:19.450Z,98621.19
2023-04-27T11:08:21.724Z,98619.97
2023-04-27T11:12:24.346Z,98619.22
2023-04-27T11:16:26.944Z,98622.41
2023-04-27T11:20:29.402Z,98621.84
2023-04-27T11:24:32.308Z,98613.72
2023-04-27T11:28:34.757Z,98603.91
2023-04-27T11:32:37.193Z,98604.19
2023-04-27T11:36:39.470Z,98602.53
2023-04-27T11:40:42.837Z,98606.06
2023-04-27T11:45:02.917Z,98609.34
2023-04-27T11:49:06.969Z,98602.88
2023-04-27T11:53:09.093Z,98598.91
2023-04-27T11:57:11.403Z,98587.19
2023-04-27T12:01:15.466Z,98586.16
2023-04-27T12:05:18.919Z,98597.34
2023-04-27T12:09:22.640Z,98594.50
2023-04-27T12:13:24.838Z,98596.19
2023-04-27T12:17:27.244Z,98594.75
2023-04-27T12:21:29.431Z,98596.88
2023-04-27T12:25:31.894Z,98592.53
2023-04-27T12:29:34.352Z,98591.25
2023-04-27T12:33:37.237Z,98587.75
2023-04-27T12:37:39.591Z,98578.91
2023-04-27T12:41:44.778Z,98576.13
2023-04-27T12:45:46.859Z,98576.91
2023-04-27T12:49:49.062Z,98587.75
2023-04-27T12:53:51.165Z,98580.66
2023-04-27T12:57:53.287Z,98572.94
2023-04-27T13:01:56.132Z,98573.88
2023-04-27T13:05:58.321Z,98572.53
2023-04-27T13:10:00.435Z,98576.53
2023-04-27T13:14:02.557Z,98572.75
2023-04-27T13:18:06.736Z,98569.16
2023-04-27T13:22:10.030Z,98568.63
2023-04-27T13:26:13.396Z,98564.63
2023-04-27T13:30:16.031Z,98563.63
2023-04-27T13:34:18.999Z,98556.28
2023-04-27T13:38:21.452Z,98563.97
2023-04-27T13:42:29.333Z,98556.81
2023-04-27T13:46:31.525Z,98549.84
2023-04-27T13:50:33.697Z,98544.13
2023-04-27T13:54:36.238Z,98542.78
2023-04-27T13:58:38.820Z,98542.50
2023-04-27T14:02:42.114Z,98562.31
2023-04-27T14:06:45.896Z,98541.66
2023-04-27T14:10:48.941Z,98542.19
2023-04-27T14:14:51.551Z,98550.81
2023-04-27T14:18:53.813Z,98536.59
2023-04-27T14:22:58.346Z,98531.50
2023-04-27T14:27:00.809Z,98535.66
2023-04-27T14:31:03.251Z,98536.88
2023-04-27T14:35:05.762Z,98533.72
2023-04-27T14:39:09.606Z,98538.53
2023-04-27T14:43:11.907Z,98543.78
2023-04-27T14:47:14.632Z,98528.03
2023-04-27T14:51:17.266Z,98547.16
2023-04-27T14:55:19.713Z,98542.06
2023-04-27T14:59:23.167Z,98543.81
2023-04-27T15:03:26.234Z,98533.75
2023-04-27T15:07:28.556Z,98549.00
2023-04-27T15:11:30.888Z,98538.47
2023-04-27T15:15:33.072Z,98535.28
2023-04-27T15:19:35.831Z,98535.38
2023-04-27T15:23:38.201Z,98536.59
2023-04-27T15:27:43.052Z,98537.88
2023-04-27T15:31:47.576Z,98545.22
2023-04-27T15:35:50.649Z,98540.53
2023-04-27T15:39:52.863Z,98532.75
2023-04-27T15:43:55.116Z,98541.09
2023-04-27T15:47:57.902Z,98543.72
2023-04-27T15:52:00.147Z,98535.63
2023-04-27T15:56:02.371Z,98535.97
2023-04-27T16:00:12.579Z,98545.25
2023-04-27T16:04:15.015Z,98538.94
2023-04-27T16:42:51.117Z,98543.09
2023-04-27T16:46:53.750Z,98550.31
2023-04-27T16:50:56.414Z,98551.63
2023-04-27T16:54:58.584Z,98547.38
2023-04-27T16:59:01.397Z,98554.47
2023-04-27T17:03:03.653Z,98558.53
2023-04-27T17:07:07.092Z,98569.41
2023-04-27T17:11:10.054Z,98570.53
2023-04-27T17:15:12.672Z,98577.31
2023-04-27T17:19:15.083Z,98576.03
2023-04-27T17:23:17.385Z,98578.34
2023-04-27T17:27:19.609Z,98584.56
2023-04-27T17:31:21.784Z,98594.41
2023-04-27T17:35:24.201Z,98597.63
2023-04-27T17:39:26.304Z,98607.09
2023-04-27T17:43:28.457Z,98602.16
2023-04-27T17:47:30.968Z,98607.03
2023-04-27T17:51:34.288Z,98610.53
2023-04-27T17:55:36.371Z,98619.22
2023-04-27T17:59:38.466Z,98632.91
2023-04-27T18:03:42.336Z,98628.28
2023-04-27T18:07:46.253Z,98638.41
2023-04-27T18:11:48.454Z,98632.53
2023-04-27T18:15:50.582Z,98643.25
2023-04-27T18:20:06.970Z,98646.19
2023-04-27T18:24:10.789Z,98656.88
2023-04-27T18:28:12.910Z,98669.88
2023-04-27T18:32:15.103Z,98671.41
2023-04-27T18:36:17.262Z,98679.94
2023-04-27T18:40:21.460Z,98681.53
2023-04-27T18:44:24.676Z,98695.03
2023-04-27T18:48:26.841Z,98702.72
2023-04-27T18:52:28.975Z,98705.56
2023-04-27T18:56:31.571Z,98714.19
2023-04-27T19:00:33.731Z,98708.47
2023-04-27T19:04:36.113Z,98712.19
2023-04-27T19:08:38.268Z,98724.91
2023-04-27T19:12:40.549Z,98720.47
2023-04-27T19:16:42.849Z,98719.13
2023-04-27T19:20:45.982Z,98720.38
2023-04-27T19:24:49.266Z,98734.88
2023-04-27T19:28:51.983Z,98731.13
2023-04-27T19:32:54.209Z,98731.06
2023-04-27T19:36:56.328Z,98740.50
2023-04-27T19:40:58.810Z,98746.25
2023-04-27T19:45:01.175Z,98744.09
2023-04-27T19:49:03.499Z,98747.94
2023-04-27T19:53:05.741Z,98758.94
2023-04-27T19:57:08.204Z,98754.38
2023-04-27T20:01:12.973Z,98756.38
2023-04-27T20:05:16.320Z,98753.28
2023-04-27T20:09:19.459Z,98756.19
2023-04-27T20:13:21.626Z,98766.47
2023-04-27T20:17:26.239Z,98777.66
2023-04-27T20:21:29.411Z,98780.94
2023-04-27T20:25:32.960Z,98774.50
2023-04-27T20:29:35.089Z,98780.22
2023-04-27T20:33:37.517Z,98780.03
2023-04-27T20:37:40.183Z,98778.44
2023-04-27T20:41:42.495Z,98783.50
2023-04-27T20:45:44.653Z,98793.66
2023-04-27T20:49:46.902Z,98786.75
2023-04-27T20:53:49.006Z,98798.25
2023-04-27T20:57:51.131Z,98800.69
2023-04-27T21:01:53.236Z,98806.03
2023-04-27T21:05:55.635Z,98814.84
2023-04-27T21:09:57.923Z,98815.13
2023-04-27T21:14:00.161Z,98811.94
2023-04-27T21:18:04.370Z,98816.72
2023-04-27T21:22:06.478Z,98831.16
2023-04-27T21:26:09.855Z,98829.03
2023-04-27T21:30:12.250Z,98823.69
2023-04-27T21:34:15.096Z,98827.16
2023-04-27T21:38:17.428Z,98833.28
2023-04-27T21:42:19.540Z,98837.50
2023-04-27T21:46:23.684Z,98832.84
2023-04-27T21:50:25.939Z,98847.53
2023-04-27T21:54:28.207Z,98857.66
2023-04-27T21:58:30.445Z,98863.00
2023-04-27T22:02:32.711Z,98858.59
2023-04-27T22:06:34.980Z,98861.34
2023-04-27T22:10:37.512Z,98870.75
2023-04-27T22:14:39.690Z,98867.97
2023-04-27T22:18:42.047Z,98877.00
2023-04-27T22:23:04.161Z,98873.50
2023-04-27T22:27:06.436Z,98874.69
2023-04-27T22:31:08.601Z,98872.72
2023-04-27T22:35:24.767Z,98880.16
2023-04-27T22:39:30.620Z,98886.03
2023-04-27T22:43:32.794Z,98879.09
2023-04-27T22:47:35.718Z,98884.00
2023-04-27T22:51:38.467Z,98885.16
2023-04-27T22:55:40.722Z,98887.19
2023-04-27T22:59:42.882Z,98893.75
2023-04-27T23:03:45.158Z,98893.66
2023-04-27T23:07:47.900Z,98892.78
2023-04-27T23:11:50.906Z,98882.81
2023-04-27T23:15:54.490Z,98887.50
2023-04-27T23:20:00.631Z,98888.13
2023-04-27T23:24:02.760Z,98878.34
2023-04-27T23:28:04.948Z,98878.09
2023-04-27T23:32:07.715Z,98880.50
2023-04-27T23:36:09.801Z,98886.28
2023-04-27T23:40:12.401Z,98882.34
2023-04-27T23:44:14.939Z,98889.03
2023-04-27T23:48:17.546Z,98891.81
2023-04-27T23:52:20.129Z,98885.88
2023-04-27T23:56:23.167Z,98895.72
